Airfield :
LOGIN :

Register | Disclaimer

   EN    FR    IT 

 










Legend :    VFR   Marginal VFR   IFR   Intensive IFR   Very Intensive IFR
Visi :
Ceiling :
>= 8 km
>= 3000ft
5 to 8 km
1000 to 3000 ft
1500m to 5 km
500 to 1000 ft
800 to 1500m
200 to 500 ft
< 800m
< 200 ft
Symbols :   Thunderstorms  Fog  Heavy snow  Heavy precipitations  Wind > 20 kt
SIGMETs :     Misc.  Thunderstorms  Icing  Turbulence  Mountain Waves  Volcanic Ashes






- Airport Elevation : 17 ft
- IATA code : GRS


LIRS - Grosseto

CURRENT METAR :
  • 270855Z 02002KT 4000 BR SCT010 SCT015 07/04 Q1024 RMK BKN VIS MIN 4000 WIND THR03 01006KT WIND THR21 03004KT GRN

EXPIRED METARs :
  • 270825Z 06002KT 3000 BR SCT010 SCT015 05/02 Q1024
  • 270755Z 10004KT 0500 FG SCT001 BKN005 05/02 Q1024 RMK OVC VIS MIN 0500 WIND THR03 10004KT WIND THR21 12004KT RED
  • 270727Z 09003KT 0800 FG SCT002 BKN005 05/02 Q1024 RMK OVC VIS MIN 0800 WIND THR03 10005KT WIND THR21 07004KT AMB
  • 270655Z 04003KT 0300 FG SCT001 BKN005 05/02 Q1023 RMK OVC VIS MIN 0300 WIND THR03 07004KT WIND THR21 06003KT RED

TAF TAF LIRS
Valid from the 27 at 09:00 until the 27 at 18:00 UTC


270800Z 2709/2718 04005KT 0500 FG BKN005
TEMPO 2710/2711 1500 BR BKN010
BECMG 2711/2713 5000 BR SCT015



MET'MAP, your aeronautical weather chart ! - Copyright ORBIFLY December 2007 - Disclaimer

ORBIFLY MET'MAP TEAM :

Programming & Development : Alexandra Zaïnal
Concept & original design : Baudouin d'Aumeries
Assistance for programming : Marc-Olivier Méhu
Technical & hardware support : Manuel Goepfert

Contact : metmap@orbifly.com




SOURCES & CREDITS :

   NOAA